sensor_id;sensor_type;location;lat;lon;timestamp;P1;durP1;ratioP1;P2;durP2;ratioP2
71610;SDS011;59459;51.172;6.682;2024-03-25T00:00:14;7.87;;;1.97;;
71610;SDS011;59459;51.172;6.682;2024-03-25T00:02:40;16.17;;;2.90;;
71610;SDS011;59459;51.172;6.682;2024-03-25T00:05:06;10.73;;;2.50;;
71610;SDS011;59459;51.172;6.682;2024-03-25T00:07:34;10.57;;;2.10;;
71610;SDS011;59459;51.172;6.682;2024-03-25T00:10:00;7.90;;;1.98;;
71610;SDS011;59459;51.172;6.682;2024-03-25T00:12:25;12.17;;;2.40;;
71610;SDS011;59459;51.172;6.682;2024-03-25T00:14:50;11.67;;;3.00;;
71610;SDS011;59459;51.172;6.682;2024-03-25T00:17:16;13.67;;;2.70;;
71610;SDS011;59459;51.172;6.682;2024-03-25T00:19:41;11.03;;;3.63;;
71610;SDS011;59459;51.172;6.682;2024-03-25T00:22:07;12.75;;;3.25;;
71610;SDS011;59459;51.172;6.682;2024-03-25T00:24:32;13.10;;;3.30;;
71610;SDS011;59459;51.172;6.682;2024-03-25T00:26:57;16.13;;;4.00;;
71610;SDS011;59459;51.172;6.682;2024-03-25T00:29:22;11.87;;;3.37;;
71610;SDS011;59459;51.172;6.682;2024-03-25T00:31:48;15.60;;;3.90;;
71610;SDS011;59459;51.172;6.682;2024-03-25T00:34:13;12.83;;;4.00;;
71610;SDS011;59459;51.172;6.682;2024-03-25T00:36:38;12.27;;;3.83;;
71610;SDS011;59459;51.172;6.682;2024-03-25T00:39:03;16.70;;;3.40;;
71610;SDS011;59459;51.172;6.682;2024-03-25T00:41:28;17.03;;;3.83;;
71610;SDS011;59459;51.172;6.682;2024-03-25T00:43:54;16.77;;;3.47;;
71610;SDS011;59459;51.172;6.682;2024-03-25T00:46:19;13.40;;;2.93;;
71610;SDS011;59459;51.172;6.682;2024-03-25T00:48:44;15.07;;;3.43;;
71610;SDS011;59459;51.172;6.682;2024-03-25T00:51:09;11.70;;;2.60;;
71610;SDS011;59459;51.172;6.682;2024-03-25T00:53:34;12.27;;;3.43;;
71610;SDS011;59459;51.172;6.682;2024-03-25T00:56:00;14.43;;;3.07;;
71610;SDS011;59459;51.172;6.682;2024-03-25T00:58:25;12.73;;;3.60;;
71610;SDS011;59459;51.172;6.682;2024-03-25T01:00:50;13.43;;;4.03;;
71610;SDS011;59459;51.172;6.682;2024-03-25T01:03:15;13.90;;;3.37;;
71610;SDS011;59459;51.172;6.682;2024-03-25T01:05:40;11.80;;;2.87;;
71610;SDS011;59459;51.172;6.682;2024-03-25T01:08:06;14.80;;;3.23;;
71610;SDS011;59459;51.172;6.682;2024-03-25T01:10:31;16.10;;;3.47;;
71610;SDS011;59459;51.172;6.682;2024-03-25T01:12:56;17.27;;;3.33;;
71610;SDS011;59459;51.172;6.682;2024-03-25T01:15:22;14.68;;;3.30;;
71610;SDS011;59459;51.172;6.682;2024-03-25T01:17:47;15.50;;;3.93;;
71610;SDS011;59459;51.172;6.682;2024-03-25T01:20:12;9.83;;;3.27;;
71610;SDS011;59459;51.172;6.682;2024-03-25T01:22:38;9.02;;;2.88;;
71610;SDS011;59459;51.172;6.682;2024-03-25T01:25:04;9.63;;;2.70;;
71610;SDS011;59459;51.172;6.682;2024-03-25T01:27:29;15.37;;;3.30;;
71610;SDS011;59459;51.172;6.682;2024-03-25T01:29:54;14.70;;;3.00;;
71610;SDS011;59459;51.172;6.682;2024-03-25T01:32:20;10.73;;;2.90;;
71610;SDS011;59459;51.172;6.682;2024-03-25T01:34:45;14.23;;;2.33;;
71610;SDS011;59459;51.172;6.682;2024-03-25T01:37:10;13.17;;;2.90;;
71610;SDS011;59459;51.172;6.682;2024-03-25T01:39:35;11.37;;;2.80;;
71610;SDS011;59459;51.172;6.682;2024-03-25T01:42:02;10.40;;;3.03;;
71610;SDS011;59459;51.172;6.682;2024-03-25T01:44:27;13.53;;;3.23;;
71610;SDS011;59459;51.172;6.682;2024-03-25T01:46:52;14.07;;;3.43;;
71610;SDS011;59459;51.172;6.682;2024-03-25T01:49:19;15.65;;;3.63;;
71610;SDS011;59459;51.172;6.682;2024-03-25T01:51:45;17.73;;;2.73;;
71610;SDS011;59459;51.172;6.682;2024-03-25T01:54:10;14.33;;;3.33;;
71610;SDS011;59459;51.172;6.682;2024-03-25T01:56:38;13.30;;;2.20;;
71610;SDS011;59459;51.172;6.682;2024-03-25T01:59:06;10.63;;;2.80;;
71610;SDS011;59459;51.172;6.682;2024-03-25T02:01:31;9.00;;;2.77;;
71610;SDS011;59459;51.172;6.682;2024-03-25T02:03:56;13.53;;;2.53;;
71610;SDS011;59459;51.172;6.682;2024-03-25T02:06:22;10.13;;;2.50;;
71610;SDS011;59459;51.172;6.682;2024-03-25T02:08:48;13.27;;;3.15;;
71610;SDS011;59459;51.172;6.682;2024-03-25T02:11:14;11.43;;;2.40;;
71610;SDS011;59459;51.172;6.682;2024-03-25T02:13:40;10.93;;;2.42;;
71610;SDS011;59459;51.172;6.682;2024-03-25T02:16:05;16.23;;;2.97;;
71610;SDS011;59459;51.172;6.682;2024-03-25T02:18:30;11.87;;;2.73;;
71610;SDS011;59459;51.172;6.682;2024-03-25T02:20:56;11.47;;;2.07;;
71610;SDS011;59459;51.172;6.682;2024-03-25T02:23:21;12.63;;;2.90;;
71610;SDS011;59459;51.172;6.682;2024-03-25T02:25:49;12.53;;;2.53;;
71610;SDS011;59459;51.172;6.682;2024-03-25T02:28:15;13.70;;;2.20;;
71610;SDS011;59459;51.172;6.682;2024-03-25T02:30:41;11.07;;;2.83;;
71610;SDS011;59459;51.172;6.682;2024-03-25T02:33:06;15.97;;;3.00;;
71610;SDS011;59459;51.172;6.682;2024-03-25T02:35:31;8.80;;;2.20;;
71610;SDS011;59459;51.172;6.682;2024-03-25T02:37:56;15.30;;;2.80;;
71610;SDS011;59459;51.172;6.682;2024-03-25T02:40:22;13.77;;;2.80;;
71610;SDS011;59459;51.172;6.682;2024-03-25T02:42:48;10.43;;;2.40;;
71610;SDS011;59459;51.172;6.682;2024-03-25T02:45:13;13.57;;;3.10;;
71610;SDS011;59459;51.172;6.682;2024-03-25T02:47:38;8.83;;;3.07;;
71610;SDS011;59459;51.172;6.682;2024-03-25T02:50:04;12.07;;;2.67;;
71610;SDS011;59459;51.172;6.682;2024-03-25T02:52:29;13.90;;;2.93;;
71610;SDS011;59459;51.172;6.682;2024-03-25T02:54:54;9.57;;;3.03;;
71610;SDS011;59459;51.172;6.682;2024-03-25T02:57:20;11.30;;;3.03;;
71610;SDS011;59459;51.172;6.682;2024-03-25T02:59:45;11.03;;;2.70;;
71610;SDS011;59459;51.172;6.682;2024-03-25T03:02:10;9.33;;;3.13;;
71610;SDS011;59459;51.172;6.682;2024-03-25T03:04:35;13.33;;;3.53;;
71610;SDS011;59459;51.172;6.682;2024-03-25T03:07:01;14.20;;;3.57;;
71610;SDS011;59459;51.172;6.682;2024-03-25T03:09:26;10.97;;;2.97;;
71610;SDS011;59459;51.172;6.682;2024-03-25T03:11:51;12.17;;;3.23;;
71610;SDS011;59459;51.172;6.682;2024-03-25T03:14:16;11.90;;;2.60;;
71610;SDS011;59459;51.172;6.682;2024-03-25T03:16:42;11.37;;;3.23;;
71610;SDS011;59459;51.172;6.682;2024-03-25T03:19:07;16.03;;;3.53;;
71610;SDS011;59459;51.172;6.682;2024-03-25T03:21:32;10.83;;;2.70;;
71610;SDS011;59459;51.172;6.682;2024-03-25T03:23:57;18.70;;;4.07;;
71610;SDS011;59459;51.172;6.682;2024-03-25T03:26:22;15.10;;;2.67;;
71610;SDS011;59459;51.172;6.682;2024-03-25T03:28:52;13.68;;;2.65;;
71610;SDS011;59459;51.172;6.682;2024-03-25T03:31:18;13.57;;;2.72;;
71610;SDS011;59459;51.172;6.682;2024-03-25T03:33:43;10.27;;;2.70;;
71610;SDS011;59459;51.172;6.682;2024-03-25T03:36:08;16.77;;;3.03;;
71610;SDS011;59459;51.172;6.682;2024-03-25T03:38:33;10.87;;;3.07;;
71610;SDS011;59459;51.172;6.682;2024-03-25T03:40:59;12.37;;;2.90;;
71610;SDS011;59459;51.172;6.682;2024-03-25T03:43:24;10.63;;;2.97;;
71610;SDS011;59459;51.172;6.682;2024-03-25T03:45:49;12.67;;;2.73;;
71610;SDS011;59459;51.172;6.682;2024-03-25T03:48:14;15.37;;;3.00;;
71610;SDS011;59459;51.172;6.682;2024-03-25T03:50:40;8.33;;;1.90;;
71610;SDS011;59459;51.172;6.682;2024-03-25T03:53:05;16.47;;;2.30;;
71610;SDS011;59459;51.172;6.682;2024-03-25T03:55:30;12.50;;;3.27;;
71610;SDS011;59459;51.172;6.682;2024-03-25T03:57:55;14.23;;;2.60;;
71610;SDS011;59459;51.172;6.682;2024-03-25T04:00:20;14.20;;;3.30;;
71610;SDS011;59459;51.172;6.682;2024-03-25T04:02:46;9.50;;;2.23;;
71610;SDS011;59459;51.172;6.682;2024-03-25T04:05:11;11.23;;;2.67;;
71610;SDS011;59459;51.172;6.682;2024-03-25T04:07:36;9.43;;;2.33;;
71610;SDS011;59459;51.172;6.682;2024-03-25T04:10:01;9.33;;;2.63;;
71610;SDS011;59459;51.172;6.682;2024-03-25T04:12:28;7.60;;;3.33;;
71610;SDS011;59459;51.172;6.682;2024-03-25T04:14:53;16.17;;;3.17;;
71610;SDS011;59459;51.172;6.682;2024-03-25T04:17:21;15.45;;;2.28;;
71610;SDS011;59459;51.172;6.682;2024-03-25T04:19:47;10.47;;;2.90;;
71610;SDS011;59459;51.172;6.682;2024-03-25T04:22:12;14.85;;;3.80;;
71610;SDS011;59459;51.172;6.682;2024-03-25T04:24:37;15.57;;;2.53;;
71610;SDS011;59459;51.172;6.682;2024-03-25T04:27:02;12.40;;;2.43;;
71610;SDS011;59459;51.172;6.682;2024-03-25T04:29:28;12.07;;;2.90;;
71610;SDS011;59459;51.172;6.682;2024-03-25T04:31:54;11.43;;;2.42;;
71610;SDS011;59459;51.172;6.682;2024-03-25T04:34:19;15.90;;;3.03;;
71610;SDS011;59459;51.172;6.682;2024-03-25T04:36:45;10.60;;;3.30;;
71610;SDS011;59459;51.172;6.682;2024-03-25T04:39:10;8.20;;;2.10;;
71610;SDS011;59459;51.172;6.682;2024-03-25T04:41:36;11.47;;;2.80;;
71610;SDS011;59459;51.172;6.682;2024-03-25T04:44:01;14.80;;;3.70;;
71610;SDS011;59459;51.172;6.682;2024-03-25T04:46:27;10.47;;;2.47;;
71610;SDS011;59459;51.172;6.682;2024-03-25T04:48:52;9.10;;;2.30;;
71610;SDS011;59459;51.172;6.682;2024-03-25T04:51:18;10.60;;;3.42;;
71610;SDS011;59459;51.172;6.682;2024-03-25T04:53:44;14.27;;;3.47;;
71610;SDS011;59459;51.172;6.682;2024-03-25T04:56:09;12.67;;;3.30;;
71610;SDS011;59459;51.172;6.682;2024-03-25T04:58:34;8.80;;;3.10;;
71610;SDS011;59459;51.172;6.682;2024-03-25T05:00:59;15.93;;;3.70;;
71610;SDS011;59459;51.172;6.682;2024-03-25T05:03:24;12.23;;;3.07;;
71610;SDS011;59459;51.172;6.682;2024-03-25T05:05:49;11.23;;;3.00;;
71610;SDS011;59459;51.172;6.682;2024-03-25T05:08:15;8.83;;;2.50;;
71610;SDS011;59459;51.172;6.682;2024-03-25T05:10:40;12.80;;;2.97;;
71610;SDS011;59459;51.172;6.682;2024-03-25T05:13:05;13.93;;;3.57;;
71610;SDS011;59459;51.172;6.682;2024-03-25T05:15:31;7.20;;;2.00;;
71610;SDS011;59459;51.172;6.682;2024-03-25T05:17:56;12.47;;;3.70;;
71610;SDS011;59459;51.172;6.682;2024-03-25T05:20:21;10.60;;;2.90;;
71610;SDS011;59459;51.172;6.682;2024-03-25T05:22:46;14.00;;;3.63;;
71610;SDS011;59459;51.172;6.682;2024-03-25T05:25:12;12.63;;;2.90;;
71610;SDS011;59459;51.172;6.682;2024-03-25T05:27:37;15.90;;;3.63;;
71610;SDS011;59459;51.172;6.682;2024-03-25T05:30:02;10.13;;;2.87;;
71610;SDS011;59459;51.172;6.682;2024-03-25T05:32:28;10.13;;;3.20;;
71610;SDS011;59459;51.172;6.682;2024-03-25T05:34:53;11.77;;;2.70;;
71610;SDS011;59459;51.172;6.682;2024-03-25T05:37:18;18.10;;;4.53;;
71610;SDS011;59459;51.172;6.682;2024-03-25T05:39:43;13.07;;;3.33;;
71610;SDS011;59459;51.172;6.682;2024-03-25T05:42:08;14.90;;;3.33;;
71610;SDS011;59459;51.172;6.682;2024-03-25T05:44:34;12.10;;;3.27;;
71610;SDS011;59459;51.172;6.682;2024-03-25T05:46:59;12.03;;;3.17;;
71610;SDS011;59459;51.172;6.682;2024-03-25T05:49:24;19.27;;;3.20;;
71610;SDS011;59459;51.172;6.682;2024-03-25T05:51:49;12.52;;;3.45;;
71610;SDS011;59459;51.172;6.682;2024-03-25T05:54:15;12.00;;;3.00;;
71610;SDS011;59459;51.172;6.682;2024-03-25T05:56:40;12.83;;;4.07;;
71610;SDS011;59459;51.172;6.682;2024-03-25T05:59:05;11.80;;;3.00;;
71610;SDS011;59459;51.172;6.682;2024-03-25T06:01:30;11.90;;;3.00;;
71610;SDS011;59459;51.172;6.682;2024-03-25T06:03:56;13.67;;;3.40;;
71610;SDS011;59459;51.172;6.682;2024-03-25T06:06:21;10.43;;;3.50;;
71610;SDS011;59459;51.172;6.682;2024-03-25T06:08:46;10.17;;;3.07;;
71610;SDS011;59459;51.172;6.682;2024-03-25T06:11:11;10.30;;;3.27;;
71610;SDS011;59459;51.172;6.682;2024-03-25T06:13:37;10.73;;;3.27;;
71610;SDS011;59459;51.172;6.682;2024-03-25T06:16:02;12.20;;;3.37;;
71610;SDS011;59459;51.172;6.682;2024-03-25T06:18:27;10.57;;;3.40;;
71610;SDS011;59459;51.172;6.682;2024-03-25T06:20:53;12.57;;;3.27;;
71610;SDS011;59459;51.172;6.682;2024-03-25T06:23:21;13.63;;;3.43;;
71610;SDS011;59459;51.172;6.682;2024-03-25T06:25:47;11.43;;;3.05;;
71610;SDS011;59459;51.172;6.682;2024-03-25T06:28:12;12.07;;;3.93;;
71610;SDS011;59459;51.172;6.682;2024-03-25T06:30:37;13.30;;;4.10;;
71610;SDS011;59459;51.172;6.682;2024-03-25T06:33:21;11.60;;;3.33;;
71610;SDS011;59459;51.172;6.682;2024-03-25T06:36:05;13.40;;;3.25;;
71610;SDS011;59459;51.172;6.682;2024-03-25T06:38:31;11.83;;;2.90;;
71610;SDS011;59459;51.172;6.682;2024-03-25T06:40:56;10.50;;;3.47;;
71610;SDS011;59459;51.172;6.682;2024-03-25T06:43:21;9.27;;;3.77;;
71610;SDS011;59459;51.172;6.682;2024-03-25T06:45:46;13.53;;;3.73;;
71610;SDS011;59459;51.172;6.682;2024-03-25T06:48:12;11.75;;;3.80;;
71610;SDS011;59459;51.172;6.682;2024-03-25T06:50:37;9.63;;;3.53;;
71610;SDS011;59459;51.172;6.682;2024-03-25T06:53:02;13.07;;;3.83;;
71610;SDS011;59459;51.172;6.682;2024-03-25T06:55:27;13.70;;;3.50;;
71610;SDS011;59459;51.172;6.682;2024-03-25T06:57:53;12.83;;;3.30;;
71610;SDS011;59459;51.172;6.682;2024-03-25T07:00:19;16.60;;;3.20;;
71610;SDS011;59459;51.172;6.682;2024-03-25T07:02:47;12.83;;;2.97;;
71610;SDS011;59459;51.172;6.682;2024-03-25T07:05:12;12.90;;;3.87;;
71610;SDS011;59459;51.172;6.682;2024-03-25T07:07:37;15.60;;;4.57;;
71610;SDS011;59459;51.172;6.682;2024-03-25T07:10:02;12.67;;;3.57;;
71610;SDS011;59459;51.172;6.682;2024-03-25T07:12:28;13.90;;;3.47;;
71610;SDS011;59459;51.172;6.682;2024-03-25T07:14:53;12.07;;;3.33;;
71610;SDS011;59459;51.172;6.682;2024-03-25T07:17:19;14.20;;;2.90;;
71610;SDS011;59459;51.172;6.682;2024-03-25T07:19:44;13.33;;;2.70;;
71610;SDS011;59459;51.172;6.682;2024-03-25T07:22:10;12.10;;;2.47;;
71610;SDS011;59459;51.172;6.682;2024-03-25T07:24:35;17.50;;;3.70;;
71610;SDS011;59459;51.172;6.682;2024-03-25T07:27:00;12.30;;;3.00;;
71610;SDS011;59459;51.172;6.682;2024-03-25T07:29:25;17.57;;;3.60;;
71610;SDS011;59459;51.172;6.682;2024-03-25T07:31:51;13.73;;;3.13;;
71610;SDS011;59459;51.172;6.682;2024-03-25T07:34:16;14.63;;;3.50;;
71610;SDS011;59459;51.172;6.682;2024-03-25T07:36:41;13.97;;;3.20;;
71610;SDS011;59459;51.172;6.682;2024-03-25T07:39:07;15.93;;;3.53;;
71610;SDS011;59459;51.172;6.682;2024-03-25T07:41:35;12.83;;;3.00;;
71610;SDS011;59459;51.172;6.682;2024-03-25T07:44:01;10.50;;;2.90;;
71610;SDS011;59459;51.172;6.682;2024-03-25T07:46:26;10.83;;;3.20;;
71610;SDS011;59459;51.172;6.682;2024-03-25T07:48:51;15.40;;;3.73;;
71610;SDS011;59459;51.172;6.682;2024-03-25T07:51:16;13.00;;;3.38;;
71610;SDS011;59459;51.172;6.682;2024-03-25T07:53:42;15.37;;;3.73;;
71610;SDS011;59459;51.172;6.682;2024-03-25T07:56:07;11.03;;;3.40;;
71610;SDS011;59459;51.172;6.682;2024-03-25T07:58:32;12.83;;;3.67;;
71610;SDS011;59459;51.172;6.682;2024-03-25T08:00:58;13.97;;;3.47;;
71610;SDS011;59459;51.172;6.682;2024-03-25T08:03:23;11.83;;;3.30;;
71610;SDS011;59459;51.172;6.682;2024-03-25T08:05:50;8.90;;;2.58;;
71610;SDS011;59459;51.172;6.682;2024-03-25T08:08:15;11.40;;;3.60;;
71610;SDS011;59459;51.172;6.682;2024-03-25T08:10:40;13.07;;;3.70;;
71610;SDS011;59459;51.172;6.682;2024-03-25T08:13:06;9.23;;;2.50;;
71610;SDS011;59459;51.172;6.682;2024-03-25T08:15:31;12.60;;;3.67;;
71610;SDS011;59459;51.172;6.682;2024-03-25T08:17:56;7.83;;;2.83;;
71610;SDS011;59459;51.172;6.682;2024-03-25T08:20:21;10.23;;;2.70;;
71610;SDS011;59459;51.172;6.682;2024-03-25T08:22:48;15.80;;;3.10;;
71610;SDS011;59459;51.172;6.682;2024-03-25T08:25:13;11.68;;;3.30;;
71610;SDS011;59459;51.172;6.682;2024-03-25T08:27:38;13.13;;;3.67;;
71610;SDS011;59459;51.172;6.682;2024-03-25T08:30:03;11.07;;;3.10;;
71610;SDS011;59459;51.172;6.682;2024-03-25T08:32:29;12.38;;;3.63;;
71610;SDS011;59459;51.172;6.682;2024-03-25T08:34:54;10.27;;;2.70;;
71610;SDS011;59459;51.172;6.682;2024-03-25T08:37:19;11.43;;;3.17;;
71610;SDS011;59459;51.172;6.682;2024-03-25T08:39:44;13.67;;;2.90;;
71610;SDS011;59459;51.172;6.682;2024-03-25T08:42:10;13.03;;;3.50;;
71610;SDS011;59459;51.172;6.682;2024-03-25T08:44:35;10.63;;;3.20;;
71610;SDS011;59459;51.172;6.682;2024-03-25T08:47:00;11.73;;;3.57;;
71610;SDS011;59459;51.172;6.682;2024-03-25T08:49:25;15.57;;;3.70;;
71610;SDS011;59459;51.172;6.682;2024-03-25T08:51:51;11.77;;;3.00;;
71610;SDS011;59459;51.172;6.682;2024-03-25T08:54:17;12.98;;;3.72;;
71610;SDS011;59459;51.172;6.682;2024-03-25T08:56:42;14.63;;;3.83;;
71610;SDS011;59459;51.172;6.682;2024-03-25T08:59:07;15.83;;;4.27;;
71610;SDS011;59459;51.172;6.682;2024-03-25T09:01:34;12.77;;;3.97;;
71610;SDS011;59459;51.172;6.682;2024-03-25T09:03:59;14.33;;;3.90;;
71610;SDS011;59459;51.172;6.682;2024-03-25T09:06:25;15.03;;;4.10;;
71610;SDS011;59459;51.172;6.682;2024-03-25T09:08:50;16.20;;;4.40;;
71610;SDS011;59459;51.172;6.682;2024-03-25T09:11:34;16.63;;;3.95;;
71610;SDS011;59459;51.172;6.682;2024-03-25T09:13:59;16.33;;;4.47;;
71610;SDS011;59459;51.172;6.682;2024-03-25T09:16:24;14.13;;;4.53;;
71610;SDS011;59459;51.172;6.682;2024-03-25T09:18:49;16.30;;;5.00;;
71610;SDS011;59459;51.172;6.682;2024-03-25T09:21:14;15.97;;;5.60;;
71610;SDS011;59459;51.172;6.682;2024-03-25T09:23:41;12.65;;;4.47;;
71610;SDS011;59459;51.172;6.682;2024-03-25T09:26:06;16.40;;;4.53;;
71610;SDS011;59459;51.172;6.682;2024-03-25T09:28:31;17.27;;;4.93;;
71610;SDS011;59459;51.172;6.682;2024-03-25T09:30:56;21.53;;;5.40;;
71610;SDS011;59459;51.172;6.682;2024-03-25T09:33:21;18.17;;;5.67;;
71610;SDS011;59459;51.172;6.682;2024-03-25T09:35:47;17.27;;;5.17;;
71610;SDS011;59459;51.172;6.682;2024-03-25T09:38:12;24.83;;;6.13;;
71610;SDS011;59459;51.172;6.682;2024-03-25T09:40:39;20.33;;;5.30;;
71610;SDS011;59459;51.172;6.682;2024-03-25T09:43:04;19.15;;;6.70;;
71610;SDS011;59459;51.172;6.682;2024-03-25T09:45:31;16.30;;;4.53;;
71610;SDS011;59459;51.172;6.682;2024-03-25T09:47:57;16.13;;;4.50;;
71610;SDS011;59459;51.172;6.682;2024-03-25T09:50:23;14.32;;;4.53;;
71610;SDS011;59459;51.172;6.682;2024-03-25T09:52:49;19.43;;;5.03;;
71610;SDS011;59459;51.172;6.682;2024-03-25T09:55:14;19.07;;;5.50;;
71610;SDS011;59459;51.172;6.682;2024-03-25T09:57:39;21.87;;;5.93;;
71610;SDS011;59459;51.172;6.682;2024-03-25T10:00:07;18.52;;;5.50;;
71610;SDS011;59459;51.172;6.682;2024-03-25T10:02:33;17.92;;;4.65;;
71610;SDS011;59459;51.172;6.682;2024-03-25T10:04:59;14.73;;;4.22;;
71610;SDS011;59459;51.172;6.682;2024-03-25T10:07:24;19.30;;;4.53;;
71610;SDS011;59459;51.172;6.682;2024-03-25T10:09:50;16.17;;;4.93;;
71610;SDS011;59459;51.172;6.682;2024-03-25T10:12:16;17.80;;;5.13;;
71610;SDS011;59459;51.172;6.682;2024-03-25T10:14:41;16.03;;;4.70;;
71610;SDS011;59459;51.172;6.682;2024-03-25T10:17:06;18.00;;;4.93;;
71610;SDS011;59459;51.172;6.682;2024-03-25T10:19:32;16.77;;;3.70;;
71610;SDS011;59459;51.172;6.682;2024-03-25T10:22:04;14.45;;;4.32;;
71610;SDS011;59459;51.172;6.682;2024-03-25T10:27:09;15.37;;;5.37;;
71610;SDS011;59459;51.172;6.682;2024-03-25T10:29:34;9.40;;;3.67;;
71610;SDS011;59459;51.172;6.682;2024-03-25T10:32:00;12.27;;;4.03;;
71610;SDS011;59459;51.172;6.682;2024-03-25T10:34:25;9.23;;;3.53;;
71610;SDS011;59459;51.172;6.682;2024-03-25T10:36:51;12.60;;;3.60;;
71610;SDS011;59459;51.172;6.682;2024-03-25T10:39:18;14.93;;;4.30;;
71610;SDS011;59459;51.172;6.682;2024-03-25T10:41:44;12.45;;;4.20;;
71610;SDS011;59459;51.172;6.682;2024-03-25T10:44:11;13.68;;;3.58;;
71610;SDS011;59459;51.172;6.682;2024-03-25T10:46:36;13.90;;;4.80;;
71610;SDS011;59459;51.172;6.682;2024-03-25T10:49:03;12.80;;;4.53;;
71610;SDS011;59459;51.172;6.682;2024-03-25T10:51:32;12.43;;;3.97;;
71610;SDS011;59459;51.172;6.682;2024-03-25T10:53:58;19.27;;;4.90;;
71610;SDS011;59459;51.172;6.682;2024-03-25T10:56:23;12.00;;;4.10;;
71610;SDS011;59459;51.172;6.682;2024-03-25T10:58:49;12.87;;;4.30;;
71610;SDS011;59459;51.172;6.682;2024-03-25T11:01:15;10.40;;;4.10;;
71610;SDS011;59459;51.172;6.682;2024-03-25T11:03:41;14.13;;;4.07;;
71610;SDS011;59459;51.172;6.682;2024-03-25T11:06:07;12.07;;;4.03;;
71610;SDS011;59459;51.172;6.682;2024-03-25T11:08:32;14.07;;;5.07;;
71610;SDS011;59459;51.172;6.682;2024-03-25T11:10:57;15.13;;;4.77;;
71610;SDS011;59459;51.172;6.682;2024-03-25T11:13:22;11.50;;;4.50;;
71610;SDS011;59459;51.172;6.682;2024-03-25T11:15:48;12.10;;;3.90;;
71610;SDS011;59459;51.172;6.682;2024-03-25T11:18:14;8.40;;;3.72;;
71610;SDS011;59459;51.172;6.682;2024-03-25T11:20:40;9.13;;;3.07;;
71610;SDS011;59459;51.172;6.682;2024-03-25T11:23:23;10.45;;;3.70;;
71610;SDS011;59459;51.172;6.682;2024-03-25T11:25:54;10.87;;;3.50;;
71610;SDS011;59459;51.172;6.682;2024-03-25T11:28:26;8.65;;;3.38;;
71610;SDS011;59459;51.172;6.682;2024-03-25T11:30:51;11.25;;;3.25;;
71610;SDS011;59459;51.172;6.682;2024-03-25T11:33:16;11.13;;;2.80;;
71610;SDS011;59459;51.172;6.682;2024-03-25T11:35:42;8.43;;;2.97;;
71610;SDS011;59459;51.172;6.682;2024-03-25T11:38:07;11.53;;;3.93;;
71610;SDS011;59459;51.172;6.682;2024-03-25T11:40:32;10.77;;;2.87;;
71610;SDS011;59459;51.172;6.682;2024-03-25T11:42:58;9.07;;;2.63;;
71610;SDS011;59459;51.172;6.682;2024-03-25T11:45:23;7.40;;;2.25;;
71610;SDS011;59459;51.172;6.682;2024-03-25T11:47:50;6.63;;;2.00;;
71610;SDS011;59459;51.172;6.682;2024-03-25T11:50:16;6.60;;;2.10;;
71610;SDS011;59459;51.172;6.682;2024-03-25T11:52:41;6.10;;;2.37;;
71610;SDS011;59459;51.172;6.682;2024-03-25T11:55:07;6.20;;;2.28;;
71610;SDS011;59459;51.172;6.682;2024-03-25T11:57:36;8.75;;;2.80;;
71610;SDS011;59459;51.172;6.682;2024-03-25T12:00:02;6.53;;;2.50;;
71610;SDS011;59459;51.172;6.682;2024-03-25T12:02:30;8.47;;;3.00;;
71610;SDS011;59459;51.172;6.682;2024-03-25T12:04:55;9.45;;;3.78;;
71610;SDS011;59459;51.172;6.682;2024-03-25T12:07:20;7.53;;;2.80;;
71610;SDS011;59459;51.172;6.682;2024-03-25T12:09:46;5.93;;;2.50;;
71610;SDS011;59459;51.172;6.682;2024-03-25T12:12:30;9.17;;;2.70;;
71610;SDS011;59459;51.172;6.682;2024-03-25T12:14:57;7.70;;;2.45;;
71610;SDS011;59459;51.172;6.682;2024-03-25T12:17:22;8.73;;;3.03;;
71610;SDS011;59459;51.172;6.682;2024-03-25T12:20:06;9.77;;;2.43;;
71610;SDS011;59459;51.172;6.682;2024-03-25T12:22:36;6.28;;;2.67;;
71610;SDS011;59459;51.172;6.682;2024-03-25T12:25:02;8.48;;;2.17;;
71610;SDS011;59459;51.172;6.682;2024-03-25T12:27:28;5.00;;;1.53;;
71610;SDS011;59459;51.172;6.682;2024-03-25T12:29:57;5.60;;;1.70;;
71610;SDS011;59459;51.172;6.682;2024-03-25T12:32:30;6.97;;;1.90;;
71610;SDS011;59459;51.172;6.682;2024-03-25T12:34:55;4.85;;;1.55;;
71610;SDS011;59459;51.172;6.682;2024-03-25T12:37:20;7.33;;;2.20;;
71610;SDS011;59459;51.172;6.682;2024-03-25T12:39:48;5.03;;;1.80;;
71610;SDS011;59459;51.172;6.682;2024-03-25T12:42:13;4.25;;;1.75;;
71610;SDS011;59459;51.172;6.682;2024-03-25T12:44:38;5.07;;;2.07;;
71610;SDS011;59459;51.172;6.682;2024-03-25T12:47:04;3.87;;;1.57;;
71610;SDS011;59459;51.172;6.682;2024-03-25T12:49:29;6.40;;;2.00;;
71610;SDS011;59459;51.172;6.682;2024-03-25T12:51:54;4.20;;;1.90;;
71610;SDS011;59459;51.172;6.682;2024-03-25T12:54:19;6.87;;;2.40;;
71610;SDS011;59459;51.172;6.682;2024-03-25T12:56:44;7.17;;;2.47;;
71610;SDS011;59459;51.172;6.682;2024-03-25T12:59:10;4.60;;;1.63;;
71610;SDS011;59459;51.172;6.682;2024-03-25T13:01:35;6.13;;;1.67;;
71610;SDS011;59459;51.172;6.682;2024-03-25T13:04:00;7.40;;;1.93;;
71610;SDS011;59459;51.172;6.682;2024-03-25T13:06:25;8.27;;;2.13;;
71610;SDS011;59459;51.172;6.682;2024-03-25T13:08:51;4.37;;;1.20;;
71610;SDS011;59459;51.172;6.682;2024-03-25T13:11:16;3.60;;;1.70;;
71610;SDS011;59459;51.172;6.682;2024-03-25T13:13:41;8.27;;;2.00;;
71610;SDS011;59459;51.172;6.682;2024-03-25T13:16:06;6.57;;;1.67;;
71610;SDS011;59459;51.172;6.682;2024-03-25T13:18:32;6.83;;;1.60;;
71610;SDS011;59459;51.172;6.682;2024-03-25T13:20:57;5.27;;;1.87;;
71610;SDS011;59459;51.172;6.682;2024-03-25T13:23:22;7.55;;;1.73;;
71610;SDS011;59459;51.172;6.682;2024-03-25T13:25:48;5.90;;;1.60;;
71610;SDS011;59459;51.172;6.682;2024-03-25T13:28:13;6.23;;;1.70;;
71610;SDS011;59459;51.172;6.682;2024-03-25T13:30:38;4.73;;;1.53;;
71610;SDS011;59459;51.172;6.682;2024-03-25T13:33:03;2.73;;;1.07;;
71610;SDS011;59459;51.172;6.682;2024-03-25T13:35:29;6.43;;;1.57;;
71610;SDS011;59459;51.172;6.682;2024-03-25T13:37:54;6.07;;;1.77;;
71610;SDS011;59459;51.172;6.682;2024-03-25T13:40:19;6.20;;;1.93;;
71610;SDS011;59459;51.172;6.682;2024-03-25T13:42:44;6.70;;;1.50;;
71610;SDS011;59459;51.172;6.682;2024-03-25T13:45:10;5.97;;;1.45;;
71610;SDS011;59459;51.172;6.682;2024-03-25T13:47:35;5.43;;;1.80;;
71610;SDS011;59459;51.172;6.682;2024-03-25T13:50:03;5.80;;;1.30;;
71610;SDS011;59459;51.172;6.682;2024-03-25T13:52:29;4.60;;;1.30;;
71610;SDS011;59459;51.172;6.682;2024-03-25T13:54:54;6.72;;;1.15;;
71610;SDS011;59459;51.172;6.682;2024-03-25T13:57:19;6.73;;;1.87;;
71610;SDS011;59459;51.172;6.682;2024-03-25T13:59:44;4.50;;;1.07;;
71610;SDS011;59459;51.172;6.682;2024-03-25T14:02:09;4.73;;;1.60;;
71610;SDS011;59459;51.172;6.682;2024-03-25T14:04:34;4.40;;;1.30;;
71610;SDS011;59459;51.172;6.682;2024-03-25T14:07:00;5.70;;;1.47;;
71610;SDS011;59459;51.172;6.682;2024-03-25T14:09:25;4.87;;;1.40;;
71610;SDS011;59459;51.172;6.682;2024-03-25T14:11:50;6.03;;;1.63;;
71610;SDS011;59459;51.172;6.682;2024-03-25T14:14:15;3.50;;;0.90;;
71610;SDS011;59459;51.172;6.682;2024-03-25T14:16:41;2.73;;;1.00;;
71610;SDS011;59459;51.172;6.682;2024-03-25T14:19:06;3.97;;;1.20;;
71610;SDS011;59459;51.172;6.682;2024-03-25T14:21:31;6.50;;;1.43;;
71610;SDS011;59459;51.172;6.682;2024-03-25T14:23:56;4.70;;;1.23;;
71610;SDS011;59459;51.172;6.682;2024-03-25T14:26:21;4.17;;;0.93;;
71610;SDS011;59459;51.172;6.682;2024-03-25T14:28:46;5.90;;;1.20;;
71610;SDS011;59459;51.172;6.682;2024-03-25T14:31:12;3.30;;;1.07;;